sensor_id;sensor_type;location;lat;lon;timestamp;P1;durP1;ratioP1;P2;durP2;ratioP2
25511;SDS011;13414;44.534;18.700;2023-06-22T00:00:21;36.90;;;33.45;;
25511;SDS011;13414;44.534;18.700;2023-06-22T00:02:50;36.45;;;32.90;;
25511;SDS011;13414;44.534;18.700;2023-06-22T00:05:17;37.08;;;33.35;;
25511;SDS011;13414;44.534;18.700;2023-06-22T00:07:45;36.95;;;33.45;;
25511;SDS011;13414;44.534;18.700;2023-06-22T00:10:12;38.28;;;34.78;;
25511;SDS011;13414;44.534;18.700;2023-06-22T00:12:40;36.53;;;32.85;;
25511;SDS011;13414;44.534;18.700;2023-06-22T00:15:07;37.30;;;33.75;;
25511;SDS011;13414;44.534;18.700;2023-06-22T00:17:35;36.83;;;33.20;;
25511;SDS011;13414;44.534;18.700;2023-06-22T00:20:05;38.10;;;33.75;;
25511;SDS011;13414;44.534;18.700;2023-06-22T00:22:33;36.03;;;32.53;;
25511;SDS011;13414;44.534;18.700;2023-06-22T00:25:05;35.95;;;32.53;;
25511;SDS011;13414;44.534;18.700;2023-06-22T00:27:33;36.80;;;33.17;;
25511;SDS011;13414;44.534;18.700;2023-06-22T00:30:01;35.13;;;31.77;;
25511;SDS011;13414;44.534;18.700;2023-06-22T00:32:29;37.53;;;33.90;;
25511;SDS011;13414;44.534;18.700;2023-06-22T00:34:57;35.80;;;32.30;;
25511;SDS011;13414;44.534;18.700;2023-06-22T00:37:27;36.47;;;32.92;;
25511;SDS011;13414;44.534;18.700;2023-06-22T00:39:54;36.45;;;33.05;;
25511;SDS011;13414;44.534;18.700;2023-06-22T00:42:22;37.67;;;33.95;;
25511;SDS011;13414;44.534;18.700;2023-06-22T00:44:49;36.65;;;33.03;;
25511;SDS011;13414;44.534;18.700;2023-06-22T00:47:17;37.75;;;33.95;;
25511;SDS011;13414;44.534;18.700;2023-06-22T00:49:45;36.38;;;32.75;;
25511;SDS011;13414;44.534;18.700;2023-06-22T00:52:16;35.53;;;31.88;;
25511;SDS011;13414;44.534;18.700;2023-06-22T00:54:47;35.97;;;32.33;;
25511;SDS011;13414;44.534;18.700;2023-06-22T00:57:15;37.75;;;34.05;;
25511;SDS011;13414;44.534;18.700;2023-06-22T00:59:45;35.42;;;31.92;;
25511;SDS011;13414;44.534;18.700;2023-06-22T01:02:14;35.63;;;32.33;;
25511;SDS011;13414;44.534;18.700;2023-06-22T01:04:42;35.47;;;32.00;;
25511;SDS011;13414;44.534;18.700;2023-06-22T01:07:14;35.90;;;32.47;;
25511;SDS011;13414;44.534;18.700;2023-06-22T01:09:56;34.95;;;31.65;;
25511;SDS011;13414;44.534;18.700;2023-06-22T01:12:27;42.17;;;37.75;;
25511;SDS011;13414;44.534;18.700;2023-06-22T01:15:02;64.82;;;55.03;;
25511;SDS011;13414;44.534;18.700;2023-06-22T01:17:35;36.30;;;32.70;;
25511;SDS011;13414;44.534;18.700;2023-06-22T01:20:09;35.63;;;31.92;;
25511;SDS011;13414;44.534;18.700;2023-06-22T01:22:41;35.88;;;32.20;;
25511;SDS011;13414;44.534;18.700;2023-06-22T01:25:20;33.72;;;30.33;;
25511;SDS011;13414;44.534;18.700;2023-06-22T01:27:55;34.72;;;31.33;;
25511;SDS011;13414;44.534;18.700;2023-06-22T01:30:30;36.83;;;33.20;;
25511;SDS011;13414;44.534;18.700;2023-06-22T01:33:03;35.30;;;31.70;;
25511;SDS011;13414;44.534;18.700;2023-06-22T01:35:33;34.58;;;31.30;;
25511;SDS011;13414;44.534;18.700;2023-06-22T01:38:00;33.63;;;30.33;;
25511;SDS011;13414;44.534;18.700;2023-06-22T01:40:29;34.72;;;31.40;;
25511;SDS011;13414;44.534;18.700;2023-06-22T01:42:58;33.97;;;30.55;;
25511;SDS011;13414;44.534;18.700;2023-06-22T01:45:27;33.22;;;29.92;;
25511;SDS011;13414;44.534;18.700;2023-06-22T01:47:56;33.95;;;30.42;;
25511;SDS011;13414;44.534;18.700;2023-06-22T01:50:24;34.95;;;31.00;;
25511;SDS011;13414;44.534;18.700;2023-06-22T01:52:52;34.85;;;31.70;;
25511;SDS011;13414;44.534;18.700;2023-06-22T01:55:19;37.22;;;33.22;;
25511;SDS011;13414;44.534;18.700;2023-06-22T01:57:48;37.08;;;33.58;;
25511;SDS011;13414;44.534;18.700;2023-06-22T02:00:17;36.28;;;32.67;;
25511;SDS011;13414;44.534;18.700;2023-06-22T02:02:52;37.92;;;34.03;;
25511;SDS011;13414;44.534;18.700;2023-06-22T02:05:23;37.72;;;33.95;;
25511;SDS011;13414;44.534;18.700;2023-06-22T02:07:55;37.35;;;33.85;;
25511;SDS011;13414;44.534;18.700;2023-06-22T02:10:30;38.13;;;34.05;;
25511;SDS011;13414;44.534;18.700;2023-06-22T02:12:59;38.78;;;35.03;;
25511;SDS011;13414;44.534;18.700;2023-06-22T02:15:27;39.22;;;35.20;;
25511;SDS011;13414;44.534;18.700;2023-06-22T02:17:56;38.70;;;34.95;;
25511;SDS011;13414;44.534;18.700;2023-06-22T02:20:24;36.95;;;33.35;;
25511;SDS011;13414;44.534;18.700;2023-06-22T02:22:51;36.20;;;32.70;;
25511;SDS011;13414;44.534;18.700;2023-06-22T02:25:19;35.80;;;32.33;;
25511;SDS011;13414;44.534;18.700;2023-06-22T02:27:46;37.00;;;33.25;;
25511;SDS011;13414;44.534;18.700;2023-06-22T02:30:16;36.67;;;33.22;;
25511;SDS011;13414;44.534;18.700;2023-06-22T02:32:43;36.88;;;33.42;;
25511;SDS011;13414;44.534;18.700;2023-06-22T02:35:16;37.70;;;34.03;;
25511;SDS011;13414;44.534;18.700;2023-06-22T02:37:44;36.63;;;33.22;;
25511;SDS011;13414;44.534;18.700;2023-06-22T02:40:12;37.63;;;34.15;;
25511;SDS011;13414;44.534;18.700;2023-06-22T02:42:40;36.70;;;33.10;;
25511;SDS011;13414;44.534;18.700;2023-06-22T02:45:08;37.75;;;33.83;;
25511;SDS011;13414;44.534;18.700;2023-06-22T02:47:36;35.85;;;32.40;;
25511;SDS011;13414;44.534;18.700;2023-06-22T02:50:04;35.75;;;32.20;;
25511;SDS011;13414;44.534;18.700;2023-06-22T02:52:35;34.38;;;31.20;;
25511;SDS011;13414;44.534;18.700;2023-06-22T02:55:05;35.15;;;31.52;;
25511;SDS011;13414;44.534;18.700;2023-06-22T02:57:34;35.22;;;31.88;;
25511;SDS011;13414;44.534;18.700;2023-06-22T03:00:02;37.15;;;32.95;;
25511;SDS011;13414;44.534;18.700;2023-06-22T03:02:42;35.42;;;31.77;;
25511;SDS011;13414;44.534;18.700;2023-06-22T03:05:10;37.45;;;33.75;;
25511;SDS011;13414;44.534;18.700;2023-06-22T03:07:41;39.13;;;35.13;;
25511;SDS011;13414;44.534;18.700;2023-06-22T03:10:09;38.13;;;34.28;;
25511;SDS011;13414;44.534;18.700;2023-06-22T03:12:38;37.83;;;34.25;;
25511;SDS011;13414;44.534;18.700;2023-06-22T03:15:06;37.53;;;33.83;;
25511;SDS011;13414;44.534;18.700;2023-06-22T03:17:34;37.47;;;33.95;;
25511;SDS011;13414;44.534;18.700;2023-06-22T03:20:03;36.10;;;32.70;;
25511;SDS011;13414;44.534;18.700;2023-06-22T03:22:34;37.72;;;33.95;;
25511;SDS011;13414;44.534;18.700;2023-06-22T03:25:04;39.28;;;35.47;;
25511;SDS011;13414;44.534;18.700;2023-06-22T03:27:37;37.72;;;33.92;;
25511;SDS011;13414;44.534;18.700;2023-06-22T03:30:07;36.58;;;32.80;;
25511;SDS011;13414;44.534;18.700;2023-06-22T03:32:35;36.63;;;32.97;;
25511;SDS011;13414;44.534;18.700;2023-06-22T03:35:05;35.90;;;32.20;;
25511;SDS011;13414;44.534;18.700;2023-06-22T03:37:35;35.70;;;32.20;;
25511;SDS011;13414;44.534;18.700;2023-06-22T03:40:06;36.05;;;32.45;;
25511;SDS011;13414;44.534;18.700;2023-06-22T03:42:35;36.58;;;32.85;;
25511;SDS011;13414;44.534;18.700;2023-06-22T03:45:03;35.88;;;32.00;;
25511;SDS011;13414;44.534;18.700;2023-06-22T03:47:32;34.15;;;30.63;;
25511;SDS011;13414;44.534;18.700;2023-06-22T03:50:00;34.75;;;31.00;;
25511;SDS011;13414;44.534;18.700;2023-06-22T03:52:29;32.90;;;29.73;;
25511;SDS011;13414;44.534;18.700;2023-06-22T03:54:56;33.42;;;30.23;;
25511;SDS011;13414;44.534;18.700;2023-06-22T03:57:25;34.40;;;30.85;;
25511;SDS011;13414;44.534;18.700;2023-06-22T03:59:53;33.13;;;29.75;;
25511;SDS011;13414;44.534;18.700;2023-06-22T04:02:23;31.40;;;28.20;;
25511;SDS011;13414;44.534;18.700;2023-06-22T04:04:51;32.88;;;29.52;;
25511;SDS011;13414;44.534;18.700;2023-06-22T04:07:19;37.55;;;33.33;;
25511;SDS011;13414;44.534;18.700;2023-06-22T04:09:46;31.05;;;27.98;;
25511;SDS011;13414;44.534;18.700;2023-06-22T04:12:16;31.17;;;27.33;;
25511;SDS011;13414;44.534;18.700;2023-06-22T04:14:46;29.90;;;25.88;;
25511;SDS011;13414;44.534;18.700;2023-06-22T04:17:19;29.85;;;26.67;;
25511;SDS011;13414;44.534;18.700;2023-06-22T04:19:46;29.02;;;26.13;;
25511;SDS011;13414;44.534;18.700;2023-06-22T04:22:14;28.58;;;25.67;;
25511;SDS011;13414;44.534;18.700;2023-06-22T04:24:42;27.40;;;24.52;;
25511;SDS011;13414;44.534;18.700;2023-06-22T04:27:10;28.30;;;25.55;;
25511;SDS011;13414;44.534;18.700;2023-06-22T04:29:38;28.23;;;25.60;;
25511;SDS011;13414;44.534;18.700;2023-06-22T04:32:15;27.98;;;24.92;;
25511;SDS011;13414;44.534;18.700;2023-06-22T04:34:44;26.55;;;24.05;;
25511;SDS011;13414;44.534;18.700;2023-06-22T04:37:12;26.92;;;24.08;;
25511;SDS011;13414;44.534;18.700;2023-06-22T04:39:41;26.45;;;23.73;;
25511;SDS011;13414;44.534;18.700;2023-06-22T04:42:08;26.08;;;23.48;;
25511;SDS011;13414;44.534;18.700;2023-06-22T04:44:36;28.00;;;25.08;;
25511;SDS011;13414;44.534;18.700;2023-06-22T04:47:05;26.63;;;23.83;;
25511;SDS011;13414;44.534;18.700;2023-06-22T04:49:35;28.83;;;23.13;;
25511;SDS011;13414;44.534;18.700;2023-06-22T04:52:04;28.20;;;25.13;;
25511;SDS011;13414;44.534;18.700;2023-06-22T04:54:32;24.92;;;22.42;;
25511;SDS011;13414;44.534;18.700;2023-06-22T04:57:00;26.35;;;23.33;;
25511;SDS011;13414;44.534;18.700;2023-06-22T04:59:28;24.77;;;22.52;;
25511;SDS011;13414;44.534;18.700;2023-06-22T05:01:56;26.13;;;23.63;;
25511;SDS011;13414;44.534;18.700;2023-06-22T05:04:24;24.83;;;22.50;;
25511;SDS011;13414;44.534;18.700;2023-06-22T05:06:54;25.95;;;22.80;;
25511;SDS011;13414;44.534;18.700;2023-06-22T05:09:22;25.67;;;22.60;;
25511;SDS011;13414;44.534;18.700;2023-06-22T05:11:50;25.90;;;23.17;;
25511;SDS011;13414;44.534;18.700;2023-06-22T05:14:18;27.27;;;24.40;;
25511;SDS011;13414;44.534;18.700;2023-06-22T05:16:46;24.90;;;22.50;;
25511;SDS011;13414;44.534;18.700;2023-06-22T05:19:13;25.08;;;22.73;;
25511;SDS011;13414;44.534;18.700;2023-06-22T05:21:40;27.50;;;24.75;;
25511;SDS011;13414;44.534;18.700;2023-06-22T05:24:09;25.33;;;23.02;;
25511;SDS011;13414;44.534;18.700;2023-06-22T05:26:37;28.05;;;25.15;;
25511;SDS011;13414;44.534;18.700;2023-06-22T05:29:04;25.88;;;23.48;;
25511;SDS011;13414;44.534;18.700;2023-06-22T05:31:32;28.30;;;25.38;;
25511;SDS011;13414;44.534;18.700;2023-06-22T05:33:59;26.73;;;24.25;;
25511;SDS011;13414;44.534;18.700;2023-06-22T05:36:27;28.20;;;25.23;;
25511;SDS011;13414;44.534;18.700;2023-06-22T05:38:56;34.92;;;31.25;;
25511;SDS011;13414;44.534;18.700;2023-06-22T05:41:25;28.98;;;26.15;;
25511;SDS011;13414;44.534;18.700;2023-06-22T05:43:52;26.25;;;23.85;;
25511;SDS011;13414;44.534;18.700;2023-06-22T05:46:20;26.85;;;24.45;;
25511;SDS011;13414;44.534;18.700;2023-06-22T05:48:47;28.02;;;25.42;;
25511;SDS011;13414;44.534;18.700;2023-06-22T05:51:15;26.42;;;24.08;;
25511;SDS011;13414;44.534;18.700;2023-06-22T05:53:42;28.48;;;25.65;;
25511;SDS011;13414;44.534;18.700;2023-06-22T05:56:14;28.27;;;25.40;;
25511;SDS011;13414;44.534;18.700;2023-06-22T05:58:43;30.33;;;27.58;;
25511;SDS011;13414;44.534;18.700;2023-06-22T06:01:12;27.95;;;25.10;;
25511;SDS011;13414;44.534;18.700;2023-06-22T06:03:40;28.77;;;25.88;;
25511;SDS011;13414;44.534;18.700;2023-06-22T06:06:08;28.67;;;26.15;;
25511;SDS011;13414;44.534;18.700;2023-06-22T06:08:36;29.83;;;26.83;;
25511;SDS011;13414;44.534;18.700;2023-06-22T06:11:04;30.02;;;27.25;;
25511;SDS011;13414;44.534;18.700;2023-06-22T06:13:32;30.35;;;26.88;;
25511;SDS011;13414;44.534;18.700;2023-06-22T06:16:01;30.58;;;27.35;;
25511;SDS011;13414;44.534;18.700;2023-06-22T06:18:28;29.73;;;26.92;;
25511;SDS011;13414;44.534;18.700;2023-06-22T06:20:56;32.88;;;29.83;;
25511;SDS011;13414;44.534;18.700;2023-06-22T06:23:23;31.88;;;28.67;;
25511;SDS011;13414;44.534;18.700;2023-06-22T06:25:51;31.73;;;28.65;;
25511;SDS011;13414;44.534;18.700;2023-06-22T06:28:18;31.40;;;28.20;;
25511;SDS011;13414;44.534;18.700;2023-06-22T06:30:46;33.45;;;29.95;;
25511;SDS011;13414;44.534;18.700;2023-06-22T06:33:15;35.80;;;32.35;;
25511;SDS011;13414;44.534;18.700;2023-06-22T06:35:42;33.25;;;29.23;;
25511;SDS011;13414;44.534;18.700;2023-06-22T06:38:10;32.53;;;29.17;;
25511;SDS011;13414;44.534;18.700;2023-06-22T06:40:37;32.22;;;28.92;;
25511;SDS011;13414;44.534;18.700;2023-06-22T06:43:05;32.13;;;28.67;;
25511;SDS011;13414;44.534;18.700;2023-06-22T06:45:32;33.45;;;29.88;;
25511;SDS011;13414;44.534;18.700;2023-06-22T06:48:00;33.08;;;29.67;;
25511;SDS011;13414;44.534;18.700;2023-06-22T06:50:29;35.03;;;31.33;;
25511;SDS011;13414;44.534;18.700;2023-06-22T06:52:56;33.55;;;30.23;;
25511;SDS011;13414;44.534;18.700;2023-06-22T06:55:24;36.08;;;32.00;;
25511;SDS011;13414;44.534;18.700;2023-06-22T06:57:51;34.47;;;30.80;;
25511;SDS011;13414;44.534;18.700;2023-06-22T07:00:19;33.60;;;30.05;;
25511;SDS011;13414;44.534;18.700;2023-06-22T07:02:47;33.22;;;29.90;;
25511;SDS011;13414;44.534;18.700;2023-06-22T07:05:14;34.40;;;30.88;;
25511;SDS011;13414;44.534;18.700;2023-06-22T07:07:43;34.28;;;30.75;;
25511;SDS011;13414;44.534;18.700;2023-06-22T07:10:11;35.33;;;31.63;;
25511;SDS011;13414;44.534;18.700;2023-06-22T07:12:38;33.88;;;30.38;;
25511;SDS011;13414;44.534;18.700;2023-06-22T07:15:06;33.97;;;30.25;;
25511;SDS011;13414;44.534;18.700;2023-06-22T07:17:35;32.30;;;28.85;;
25511;SDS011;13414;44.534;18.700;2023-06-22T07:20:04;31.77;;;28.63;;
25511;SDS011;13414;44.534;18.700;2023-06-22T07:22:35;33.95;;;30.50;;
25511;SDS011;13414;44.534;18.700;2023-06-22T07:25:05;34.25;;;30.63;;
25511;SDS011;13414;44.534;18.700;2023-06-22T07:27:36;33.50;;;30.08;;
25511;SDS011;13414;44.534;18.700;2023-06-22T07:30:05;37.28;;;31.90;;
25511;SDS011;13414;44.534;18.700;2023-06-22T07:32:33;33.80;;;30.20;;
25511;SDS011;13414;44.534;18.700;2023-06-22T07:35:01;33.78;;;30.30;;
25511;SDS011;13414;44.534;18.700;2023-06-22T07:37:30;32.95;;;29.67;;
25511;SDS011;13414;44.534;18.700;2023-06-22T07:39:58;32.67;;;29.10;;
25511;SDS011;13414;44.534;18.700;2023-06-22T07:42:27;33.22;;;27.73;;
25511;SDS011;13414;44.534;18.700;2023-06-22T07:44:58;31.45;;;28.25;;
25511;SDS011;13414;44.534;18.700;2023-06-22T07:47:25;32.78;;;29.10;;
25511;SDS011;13414;44.534;18.700;2023-06-22T07:49:53;30.70;;;27.60;;
25511;SDS011;13414;44.534;18.700;2023-06-22T07:52:23;31.88;;;28.45;;
25511;SDS011;13414;44.534;18.700;2023-06-22T07:54:51;33.28;;;29.88;;
25511;SDS011;13414;44.534;18.700;2023-06-22T07:57:19;31.27;;;28.17;;
25511;SDS011;13414;44.534;18.700;2023-06-22T07:59:48;31.70;;;28.33;;
25511;SDS011;13414;44.534;18.700;2023-06-22T08:02:15;30.73;;;27.70;;
25511;SDS011;13414;44.534;18.700;2023-06-22T08:04:43;29.77;;;26.92;;
25511;SDS011;13414;44.534;18.700;2023-06-22T08:07:11;30.75;;;27.75;;
25511;SDS011;13414;44.534;18.700;2023-06-22T08:09:38;31.30;;;28.10;;
25511;SDS011;13414;44.534;18.700;2023-06-22T08:12:12;30.35;;;27.10;;
25511;SDS011;13414;44.534;18.700;2023-06-22T08:14:41;29.70;;;26.70;;
25511;SDS011;13414;44.534;18.700;2023-06-22T08:17:12;33.25;;;27.58;;
25511;SDS011;13414;44.534;18.700;2023-06-22T08:19:40;32.42;;;29.30;;
25511;SDS011;13414;44.534;18.700;2023-06-22T08:22:07;32.30;;;29.20;;
25511;SDS011;13414;44.534;18.700;2023-06-22T08:24:35;32.03;;;28.73;;
25511;SDS011;13414;44.534;18.700;2023-06-22T08:27:03;30.70;;;27.58;;
25511;SDS011;13414;44.534;18.700;2023-06-22T08:29:34;30.63;;;27.52;;
25511;SDS011;13414;44.534;18.700;2023-06-22T08:32:01;30.13;;;27.02;;
25511;SDS011;13414;44.534;18.700;2023-06-22T08:34:30;31.10;;;27.85;;
25511;SDS011;13414;44.534;18.700;2023-06-22T08:36:57;30.58;;;26.50;;
25511;SDS011;13414;44.534;18.700;2023-06-22T08:39:25;30.23;;;27.15;;
25511;SDS011;13414;44.534;18.700;2023-06-22T08:41:53;29.77;;;26.65;;
25511;SDS011;13414;44.534;18.700;2023-06-22T08:44:20;32.25;;;29.05;;
25511;SDS011;13414;44.534;18.700;2023-06-22T08:46:47;29.95;;;26.95;;
25511;SDS011;13414;44.534;18.700;2023-06-22T08:49:17;30.30;;;27.38;;
25511;SDS011;13414;44.534;18.700;2023-06-22T08:51:49;28.30;;;25.60;;
25511;SDS011;13414;44.534;18.700;2023-06-22T08:54:18;30.25;;;27.13;;
25511;SDS011;13414;44.534;18.700;2023-06-22T08:56:49;28.95;;;26.13;;
25511;SDS011;13414;44.534;18.700;2023-06-22T08:59:21;28.15;;;25.45;;
25511;SDS011;13414;44.534;18.700;2023-06-22T09:01:49;31.63;;;28.42;;
25511;SDS011;13414;44.534;18.700;2023-06-22T09:04:16;30.75;;;27.27;;
25511;SDS011;13414;44.534;18.700;2023-06-22T09:06:43;30.15;;;27.08;;
25511;SDS011;13414;44.534;18.700;2023-06-22T09:09:13;30.92;;;27.88;;
25511;SDS011;13414;44.534;18.700;2023-06-22T09:11:43;30.48;;;27.38;;
25511;SDS011;13414;44.534;18.700;2023-06-22T09:14:10;30.88;;;27.77;;
25511;SDS011;13414;44.534;18.700;2023-06-22T09:16:38;31.35;;;27.95;;
25511;SDS011;13414;44.534;18.700;2023-06-22T09:19:06;33.65;;;28.60;;
25511;SDS011;13414;44.534;18.700;2023-06-22T09:21:33;30.73;;;27.73;;
25511;SDS011;13414;44.534;18.700;2023-06-22T09:24:01;30.17;;;26.95;;
25511;SDS011;13414;44.534;18.700;2023-06-22T09:26:30;32.50;;;28.35;;
25511;SDS011;13414;44.534;18.700;2023-06-22T09:28:58;33.15;;;27.55;;
25511;SDS011;13414;44.534;18.700;2023-06-22T09:31:26;28.60;;;25.63;;
25511;SDS011;13414;44.534;18.700;2023-06-22T09:33:56;28.95;;;26.25;;
25511;SDS011;13414;44.534;18.700;2023-06-22T09:36:23;30.23;;;27.13;;
25511;SDS011;13414;44.534;18.700;2023-06-22T09:38:51;32.13;;;28.88;;
25511;SDS011;13414;44.534;18.700;2023-06-22T09:41:21;27.83;;;25.20;;
25511;SDS011;13414;44.534;18.700;2023-06-22T09:43:50;27.40;;;24.48;;
25511;SDS011;13414;44.534;18.700;2023-06-22T09:46:18;26.92;;;24.35;;
25511;SDS011;13414;44.534;18.700;2023-06-22T09:48:47;26.08;;;23.45;;
25511;SDS011;13414;44.534;18.700;2023-06-22T09:51:15;31.52;;;28.30;;
25511;SDS011;13414;44.534;18.700;2023-06-22T09:53:44;28.92;;;26.00;;
25511;SDS011;13414;44.534;18.700;2023-06-22T09:56:11;22.88;;;20.45;;
25511;SDS011;13414;44.534;18.700;2023-06-22T09:58:42;26.55;;;23.80;;
25511;SDS011;13414;44.534;18.700;2023-06-22T10:01:11;26.23;;;23.50;;
25511;SDS011;13414;44.534;18.700;2023-06-22T10:03:40;36.38;;;32.53;;
25511;SDS011;13414;44.534;18.700;2023-06-22T10:06:07;23.40;;;21.20;;
25511;SDS011;13414;44.534;18.700;2023-06-22T10:08:35;25.67;;;23.27;;
25511;SDS011;13414;44.534;18.700;2023-06-22T10:11:02;27.80;;;25.15;;
25511;SDS011;13414;44.534;18.700;2023-06-22T10:13:30;26.17;;;23.63;;
25511;SDS011;13414;44.534;18.700;2023-06-22T10:16:05;27.02;;;24.52;;
25511;SDS011;13414;44.534;18.700;2023-06-22T10:18:34;26.48;;;23.73;;
25511;SDS011;13414;44.534;18.700;2023-06-22T10:21:02;27.80;;;24.45;;
25511;SDS011;13414;44.534;18.700;2023-06-22T10:23:33;26.70;;;23.83;;
25511;SDS011;13414;44.534;18.700;2023-06-22T10:26:00;23.58;;;21.25;;
25511;SDS011;13414;44.534;18.700;2023-06-22T10:28:28;22.83;;;20.45;;
25511;SDS011;13414;44.534;18.700;2023-06-22T10:30:56;23.42;;;21.30;;
25511;SDS011;13414;44.534;18.700;2023-06-22T10:33:23;24.42;;;20.45;;
25511;SDS011;13414;44.534;18.700;2023-06-22T10:35:53;24.92;;;20.88;;
25511;SDS011;13414;44.534;18.700;2023-06-22T10:38:20;25.55;;;22.85;;
25511;SDS011;13414;44.534;18.700;2023-06-22T10:40:48;23.10;;;20.80;;
25511;SDS011;13414;44.534;18.700;2023-06-22T10:43:17;23.63;;;20.55;;
25511;SDS011;13414;44.534;18.700;2023-06-22T10:45:45;24.98;;;22.48;;
25511;SDS011;13414;44.534;18.700;2023-06-22T10:48:12;26.85;;;22.58;;
25511;SDS011;13414;44.534;18.700;2023-06-22T10:50:40;24.67;;;22.27;;
25511;SDS011;13414;44.534;18.700;2023-06-22T10:53:09;23.98;;;21.55;;
25511;SDS011;13414;44.534;18.700;2023-06-22T10:55:36;25.33;;;20.48;;
25511;SDS011;13414;44.534;18.700;2023-06-22T10:58:04;22.77;;;20.48;;
25511;SDS011;13414;44.534;18.700;2023-06-22T11:00:31;25.52;;;22.00;;
25511;SDS011;13414;44.534;18.700;2023-06-22T11:02:59;25.83;;;20.42;;
25511;SDS011;13414;44.534;18.700;2023-06-22T11:05:26;24.17;;;19.00;;
25511;SDS011;13414;44.534;18.700;2023-06-22T11:07:54;21.33;;;19.27;;
25511;SDS011;13414;44.534;18.700;2023-06-22T11:10:23;23.23;;;20.73;;
25511;SDS011;13414;44.534;18.700;2023-06-22T11:12:51;25.00;;;21.67;;
25511;SDS011;13414;44.534;18.700;2023-06-22T11:15:20;58.38;;;37.15;;
25511;SDS011;13414;44.534;18.700;2023-06-22T11:17:48;24.45;;;21.95;;
25511;SDS011;13414;44.534;18.700;2023-06-22T11:20:15;27.20;;;20.05;;
25511;SDS011;13414;44.534;18.700;2023-06-22T11:22:43;20.45;;;18.35;;
25511;SDS011;13414;44.534;18.700;2023-06-22T11:25:10;22.85;;;18.30;;
25511;SDS011;13414;44.534;18.700;2023-06-22T11:27:39;21.30;;;19.02;;
25511;SDS011;13414;44.534;18.700;2023-06-22T11:30:07;28.45;;;17.70;;
25511;SDS011;13414;44.534;18.700;2023-06-22T11:32:35;24.25;;;18.58;;
25511;SDS011;13414;44.534;18.700;2023-06-22T11:35:03;23.83;;;18.23;;
25511;SDS011;13414;44.534;18.700;2023-06-22T11:37:31;22.83;;;19.23;;
25511;SDS011;13414;44.534;18.700;2023-06-22T11:39:58;22.77;;;18.63;;
25511;SDS011;13414;44.534;18.700;2023-06-22T11:42:26;20.48;;;18.05;;
25511;SDS011;13414;44.534;18.700;2023-06-22T11:44:55;21.85;;;17.05;;
25511;SDS011;13414;44.534;18.700;2023-06-22T11:47:23;23.65;;;17.13;;
25511;SDS011;13414;44.534;18.700;2023-06-22T11:49:50;24.60;;;18.70;;
25511;SDS011;13414;44.534;18.700;2023-06-22T11:52:18;20.08;;;18.15;;
25511;SDS011;13414;44.534;18.700;2023-06-22T11:54:45;19.10;;;16.83;;
25511;SDS011;13414;44.534;18.700;2023-06-22T11:57:13;21.52;;;17.83;;
25511;SDS011;13414;44.534;18.700;2023-06-22T11:59:40;22.02;;;16.63;;
25511;SDS011;13414;44.534;18.700;2023-06-22T12:02:09;20.85;;;16.60;;
25511;SDS011;13414;44.534;18.700;2023-06-22T12:04:37;19.60;;;17.30;;
25511;SDS011;13414;44.534;18.700;2023-06-22T12:07:04;22.27;;;16.40;;
25511;SDS011;13414;44.534;18.700;2023-06-22T12:09:32;18.35;;;15.25;;
25511;SDS011;13414;44.534;18.700;2023-06-22T12:11:59;16.83;;;15.05;;
25511;SDS011;13414;44.534;18.700;2023-06-22T12:14:27;20.88;;;16.02;;
25511;SDS011;13414;44.534;18.700;2023-06-22T12:16:54;18.35;;;15.85;;
25511;SDS011;13414;44.534;18.700;2023-06-22T12:19:23;18.70;;;14.38;;
25511;SDS011;13414;44.534;18.700;2023-06-22T12:21:51;14.35;;;12.48;;
25511;SDS011;13414;44.534;18.700;2023-06-22T12:24:18;14.85;;;13.25;;
25511;SDS011;13414;44.534;18.700;2023-06-22T12:26:45;18.05;;;13.65;;
25511;SDS011;13414;44.534;18.700;2023-06-22T12:29:13;15.77;;;14.00;;
25511;SDS011;13414;44.534;18.700;2023-06-22T12:31:40;16.42;;;14.63;;
25511;SDS011;13414;44.534;18.700;2023-06-22T12:34:08;15.52;;;14.00;;
25511;SDS011;13414;44.534;18.700;2023-06-22T12:36:37;20.85;;;16.25;;
25511;SDS011;13414;44.534;18.700;2023-06-22T12:39:04;16.95;;;15.10;;
25511;SDS011;13414;44.534;18.700;2023-06-22T12:41:32;18.05;;;16.08;;
25511;SDS011;13414;44.534;18.700;2023-06-22T12:43:59;20.33;;;17.77;;
25511;SDS011;13414;44.534;18.700;2023-06-22T12:46:26;16.35;;;14.82;;
25511;SDS011;13414;44.534;18.700;2023-06-22T12:48:55;17.35;;;14.85;;
25511;SDS011;13414;44.534;18.700;2023-06-22T12:51:23;19.02;;;16.20;;
25511;SDS011;13414;44.534;18.700;2023-06-22T12:53:52;17.25;;;15.32;;
25511;SDS011;13414;44.534;18.700;2023-06-22T12:56:19;16.88;;;15.10;;
25511;SDS011;13414;44.534;18.700;2023-06-22T12:58:47;19.00;;;14.85;;
25511;SDS011;13414;44.534;18.700;2023-06-22T13:01:15;17.25;;;15.55;;
25511;SDS011;13414;44.534;18.700;2023-06-22T13:03:43;19.35;;;16.52;;
25511;SDS011;13414;44.534;18.700;2023-06-22T13:06:10;17.88;;;15.98;;
25511;SDS011;13414;44.534;18.700;2023-06-22T13:08:38;21.33;;;15.73;;
25511;SDS011;13414;44.534;18.700;2023-06-22T13:11:07;17.27;;;15.68;;
25511;SDS011;13414;44.534;18.700;2023-06-22T13:13:34;18.90;;;15.70;;
25511;SDS011;13414;44.534;18.700;2023-06-22T13:16:01;17.30;;;15.55;;
25511;SDS011;13414;44.534;18.700;2023-06-22T13:18:29;17.48;;;15.57;;
25511;SDS011;13414;44.534;18.700;2023-06-22T13:20:57;20.95;;;17.00;;
25511;SDS011;13414;44.534;18.700;2023-06-22T13:23:25;18.52;;;15.90;;
25511;SDS011;13414;44.534;18.700;2023-06-22T13:25:53;19.42;;;16.95;;
25511;SDS011;13414;44.534;18.700;2023-06-22T13:28:22;20.15;;;17.63;;
25511;SDS011;13414;44.534;18.700;2023-06-22T13:30:49;23.77;;;19.67;;
25511;SDS011;13414;44.534;18.700;2023-06-22T13:33:17;20.35;;;18.25;;
25511;SDS011;13414;44.534;18.700;2023-06-22T13:35:44;20.42;;;18.02;;
25511;SDS011;13414;44.534;18.700;2023-06-22T13:38:12;20.83;;;17.33;;
25511;SDS011;13414;44.534;18.700;2023-06-22T13:40:39;19.42;;;16.92;;
25511;SDS011;13414;44.534;18.700;2023-06-22T13:43:07;18.27;;;16.35;;
25511;SDS011;13414;44.534;18.700;2023-06-22T13:45:35;28.73;;;23.90;;
25511;SDS011;13414;44.534;18.700;2023-06-22T13:48:03;18.88;;;16.95;;
25511;SDS011;13414;44.534;18.700;2023-06-22T13:50:31;17.92;;;15.45;;
25511;SDS011;13414;44.534;18.700;2023-06-22T13:52:58;18.13;;;15.68;;
25511;SDS011;13414;44.534;18.700;2023-06-22T13:55:26;18.88;;;16.17;;
25511;SDS011;13414;44.534;18.700;2023-06-22T13:57:53;24.20;;;17.08;;
25511;SDS011;13414;44.534;18.700;2023-06-22T14:00:21;18.50;;;16.50;;
25511;SDS011;13414;44.534;18.700;2023-06-22T14:02:50;21.25;;;17.42;;
25511;SDS011;13414;44.534;18.700;2023-06-22T14:05:17;22.55;;;16.00;;
25511;SDS011;13414;44.534;18.700;2023-06-22T14:07:45;19.15;;;17.08;;
25511;SDS011;13414;44.534;18.700;2023-06-22T14:10:12;19.10;;;17.05;;
25511;SDS011;13414;44.534;18.700;2023-06-22T14:12:40;20.40;;;16.70;;
25511;SDS011;13414;44.534;18.700;2023-06-22T14:15:07;20.42;;;18.40;;